createdAt,value
2023-03-29T00:01:34.915Z,101023.00
2023-03-29T00:03:08.246Z,101022.20
2023-03-29T00:04:41.261Z,101016.20
2023-03-29T00:06:22.090Z,101010.80
2023-03-29T00:07:53.993Z,101006.00
2023-03-29T00:09:26.679Z,101007.40
2023-03-29T00:10:59.367Z,101003.00
2023-03-29T00:12:32.248Z,101002.60
2023-03-29T00:14:03.995Z,100997.40
2023-03-29T00:15:35.754Z,100993.80
2023-03-29T00:17:07.478Z,100990.00
2023-03-29T00:18:39.928Z,100990.40
2023-03-29T00:20:12.282Z,100993.40
2023-03-29T00:21:44.005Z,100990.20
2023-03-29T00:23:15.768Z,100986.80
2023-03-29T00:24:49.068Z,100987.20
2023-03-29T00:26:20.895Z,100988.20
2023-03-29T00:27:52.746Z,100982.00
2023-03-29T00:29:24.500Z,100978.60
2023-03-29T00:31:09.299Z,100977.80
2023-03-29T00:32:41.188Z,100972.00
2023-03-29T00:34:13.018Z,100969.20
2023-03-29T00:35:44.770Z,100965.20
2023-03-29T00:37:18.803Z,100972.40
2023-03-29T00:38:50.645Z,100968.20
2023-03-29T00:40:22.337Z,100963.80
2023-03-29T00:41:54.959Z,100963.80
2023-03-29T00:43:26.956Z,100959.80
2023-03-29T00:45:11.924Z,100961.40
2023-03-29T00:46:43.870Z,100954.40
2023-03-29T00:48:29.961Z,100956.00
2023-03-29T00:50:18.418Z,100952.40
2023-03-29T00:51:50.400Z,100953.40
2023-03-29T00:53:26.116Z,100953.40
2023-03-29T00:55:06.008Z,100951.20
2023-03-29T00:56:43.517Z,100946.80
2023-03-29T00:58:23.425Z,100948.40
2023-03-29T00:59:57.101Z,100949.40
2023-03-29T01:01:41.965Z,100947.40
2023-03-29T01:03:24.616Z,100943.60
2023-03-29T01:05:05.562Z,100939.20
2023-03-29T01:06:43.340Z,100933.60
2023-03-29T01:08:26.323Z,100932.20
2023-03-29T01:10:09.943Z,100935.00
2023-03-29T01:11:49.290Z,100936.20
2023-03-29T01:13:56.519Z,100936.80
2023-03-29T01:15:29.353Z,100938.00
2023-03-29T01:17:01.114Z,100927.00
2023-03-29T01:18:33.689Z,100928.60
2023-03-29T01:20:22.174Z,100928.20
2023-03-29T01:22:26.072Z,100919.20
2023-03-29T01:24:51.395Z,100913.00
2023-03-29T01:26:36.763Z,100911.40
2023-03-29T01:28:14.625Z,100905.20
2023-03-29T01:29:57.220Z,100909.20
2023-03-29T01:31:38.061Z,100906.40
2023-03-29T01:33:23.318Z,100903.00
2023-03-29T01:35:02.602Z,100902.20
2023-03-29T01:37:11.332Z,100897.00
2023-03-29T01:38:56.693Z,100893.60
2023-03-29T01:40:28.389Z,100893.60
2023-03-29T01:42:26.470Z,100888.00
2023-03-29T01:44:18.195Z,100886.60
2023-03-29T01:46:25.034Z,100885.20
2023-03-29T01:48:14.786Z,100883.20
2023-03-29T01:50:03.948Z,100877.60
2023-03-29T01:52:03.812Z,100872.60
2023-03-29T01:53:54.564Z,100870.20
2023-03-29T01:55:33.893Z,100873.00
2023-03-29T01:57:10.214Z,100866.00
2023-03-29T01:58:58.258Z,100858.40
2023-03-29T02:00:34.248Z,100850.80
2023-03-29T02:02:11.634Z,100851.60
2023-03-29T02:03:50.769Z,100849.80
2023-03-29T02:05:24.412Z,100849.60
2023-03-29T02:06:59.605Z,100850.00
2023-03-29T02:08:31.966Z,100845.80
2023-03-29T02:10:07.058Z,100841.60
2023-03-29T02:11:43.286Z,100848.00
2023-03-29T02:13:15.045Z,100844.40
2023-03-29T02:14:46.748Z,100843.20
2023-03-29T02:16:19.510Z,100850.40
2023-03-29T02:17:51.764Z,100848.60
2023-03-29T02:19:25.880Z,100850.80
2023-03-29T02:20:59.188Z,100855.40
2023-03-29T02:22:46.373Z,100851.20
2023-03-29T02:24:22.181Z,100847.00
2023-03-29T02:25:56.901Z,100845.80
2023-03-29T02:27:30.014Z,100843.40
2023-03-29T02:29:02.325Z,100843.60
2023-03-29T02:30:56.382Z,100839.80
2023-03-29T02:32:42.056Z,100844.80
2023-03-29T02:34:37.545Z,100842.40
2023-03-29T02:36:17.972Z,100847.40
2023-03-29T02:37:54.911Z,100847.00
2023-03-29T02:39:32.146Z,100841.00
2023-03-29T02:41:04.437Z,100838.60
2023-03-29T02:42:37.469Z,100831.00
2023-03-29T02:44:15.071Z,100824.80
2023-03-29T02:45:47.974Z,100816.60
2023-03-29T02:47:31.983Z,100809.80
2023-03-29T02:49:05.202Z,100811.00
2023-03-29T02:50:40.063Z,100808.60
2023-03-29T02:52:22.139Z,100806.20
2023-03-29T02:54:23.091Z,100803.00
2023-03-29T02:55:55.601Z,100809.20
2023-03-29T02:57:28.672Z,100806.00
2023-03-29T02:59:00.412Z,100809.40
2023-03-29T03:00:32.328Z,100806.00
2023-03-29T03:02:05.451Z,100808.00
2023-03-29T03:03:37.298Z,100808.20
2023-03-29T03:05:09.592Z,100806.00
2023-03-29T03:06:41.584Z,100808.40
2023-03-29T03:08:15.435Z,100810.20
2023-03-29T03:09:47.750Z,100809.20
2023-03-29T03:11:19.399Z,100809.60
2023-03-29T03:12:51.723Z,100803.40
2023-03-29T03:14:23.422Z,100806.60
2023-03-29T03:15:56.174Z,100808.40
2023-03-29T03:17:27.890Z,100804.00
2023-03-29T03:19:00.879Z,100801.40
2023-03-29T03:20:33.289Z,100799.60
2023-03-29T03:22:06.067Z,100799.40
2023-03-29T03:23:37.750Z,100798.20
2023-03-29T03:25:11.305Z,100801.00
2023-03-29T03:26:46.192Z,100801.60
2023-03-29T03:28:18.341Z,100798.00
2023-03-29T03:29:50.139Z,100802.40
2023-03-29T03:31:43.077Z,100802.00
2023-03-29T03:33:43.140Z,100792.60
2023-03-29T03:35:39.518Z,100802.20
2023-03-29T03:37:12.284Z,100799.00
2023-03-29T03:38:44.254Z,100797.60
2023-03-29T03:40:16.174Z,100798.80
2023-03-29T03:41:48.244Z,100800.20
2023-03-29T03:43:21.912Z,100797.20
2023-03-29T03:44:54.107Z,100797.60
2023-03-29T03:46:43.993Z,100798.20
2023-03-29T03:48:15.824Z,100792.60
2023-03-29T03:49:58.301Z,100799.20
2023-03-29T03:51:31.243Z,100795.80
2023-03-29T03:53:03.148Z,100796.20
2023-03-29T03:54:50.103Z,100801.00
2023-03-29T03:56:36.276Z,100802.20
2023-03-29T03:58:29.933Z,100804.40
2023-03-29T04:00:01.884Z,100804.40
2023-03-29T04:01:44.871Z,100810.00
2023-03-29T04:03:19.161Z,100812.00
2023-03-29T04:04:52.564Z,100815.40
2023-03-29T04:06:30.459Z,100809.60
2023-03-29T04:08:36.296Z,100820.20
2023-03-29T04:10:35.008Z,100814.60
2023-03-29T04:12:15.718Z,100808.40
2023-03-29T04:13:47.511Z,100809.00
2023-03-29T04:15:41.591Z,100807.40
2023-03-29T04:17:14.240Z,100808.80
2023-03-29T04:19:03.466Z,100809.80
2023-03-29T04:20:36.511Z,100806.40
2023-03-29T04:22:08.235Z,100811.20
2023-03-29T04:23:43.056Z,100808.40
2023-03-29T04:25:15.512Z,100805.40
2023-03-29T04:26:53.016Z,100800.00
2023-03-29T04:28:28.819Z,100799.40
2023-03-29T04:30:14.800Z,100796.40
2023-03-29T04:32:04.982Z,100794.60
2023-03-29T04:34:00.192Z,100797.00
2023-03-29T04:35:33.335Z,100791.40
2023-03-29T04:37:10.420Z,100789.40
2023-03-29T04:38:47.414Z,100790.00
2023-03-29T04:40:20.875Z,100785.20
2023-03-29T04:42:07.399Z,100786.00
2023-03-29T04:43:41.297Z,100786.60
2023-03-29T04:45:19.185Z,100792.80
2023-03-29T04:47:04.313Z,100786.80
2023-03-29T04:48:55.791Z,100778.40
2023-03-29T04:50:37.501Z,100778.60
2023-03-29T04:52:09.680Z,100777.80
2023-03-29T04:53:41.982Z,100780.20
2023-03-29T04:55:13.783Z,100781.00
2023-03-29T04:56:52.171Z,100784.60
2023-03-29T04:58:39.420Z,100784.00
2023-03-29T05:00:15.155Z,100779.20
2023-03-29T05:02:05.422Z,100777.60
2023-03-29T05:03:37.266Z,100773.80
2023-03-29T05:05:17.199Z,100776.80
2023-03-29T05:06:49.375Z,100771.00
2023-03-29T05:08:21.686Z,100775.00
2023-03-29T05:10:11.782Z,100778.00
2023-03-29T05:11:43.839Z,100776.20
2023-03-29T05:13:16.792Z,100781.00
2023-03-29T05:14:48.580Z,100779.80
2023-03-29T05:16:20.859Z,100779.40
2023-03-29T05:17:53.464Z,100777.60
2023-03-29T05:19:25.384Z,100779.40
2023-03-29T05:20:59.563Z,100782.00
2023-03-29T05:22:31.674Z,100783.80
2023-03-29T05:24:04.635Z,100781.20
2023-03-29T05:25:54.904Z,100783.40
2023-03-29T05:27:26.592Z,100778.20
2023-03-29T05:29:04.620Z,100777.60
2023-03-29T05:30:36.396Z,100780.40
2023-03-29T05:32:14.931Z,100780.40
2023-03-29T05:33:48.273Z,100773.20
2023-03-29T05:35:20.491Z,100770.00
2023-03-29T05:36:52.539Z,100764.20
2023-03-29T05:38:24.494Z,100765.40
2023-03-29T05:40:05.608Z,100764.80
2023-03-29T05:41:38.810Z,100765.80
2023-03-29T05:43:33.639Z,100771.20
2023-03-29T05:45:06.523Z,100771.00
2023-03-29T05:46:38.259Z,100772.80
2023-03-29T05:48:11.040Z,100770.20
2023-03-29T05:49:46.078Z,100763.00
2023-03-29T05:51:24.179Z,100757.60
2023-03-29T05:52:56.809Z,100752.00
2023-03-29T05:54:28.639Z,100753.60
2023-03-29T05:56:00.354Z,100760.80
2023-03-29T05:57:37.441Z,100758.80
2023-03-29T05:59:09.485Z,100762.80
2023-03-29T06:00:42.809Z,100765.80
2023-03-29T06:02:25.681Z,100768.40
2023-03-29T06:03:58.791Z,100758.60
2023-03-29T06:05:36.886Z,100759.40
2023-03-29T06:07:12.497Z,100753.60
2023-03-29T06:08:45.374Z,100752.00
2023-03-29T06:10:29.981Z,100750.00
2023-03-29T06:12:13.875Z,100749.20
2023-03-29T06:13:53.385Z,100750.60
2023-03-29T06:15:25.624Z,100749.20
2023-03-29T06:17:03.878Z,100754.20
2023-03-29T06:18:36.867Z,100755.00
2023-03-29T06:20:11.518Z,100759.40
2023-03-29T06:21:44.378Z,100750.80
2023-03-29T06:23:22.114Z,100745.60
2023-03-29T06:24:54.508Z,100743.00
2023-03-29T06:26:32.930Z,100751.00
2023-03-29T06:28:05.967Z,100757.00
2023-03-29T06:29:38.616Z,100761.20
2023-03-29T06:31:10.776Z,100761.00
2023-03-29T06:32:43.989Z,100754.60
2023-03-29T06:34:27.251Z,100750.60
2023-03-29T06:36:16.152Z,100752.00
2023-03-29T06:37:51.019Z,100751.80
2023-03-29T06:39:31.212Z,100748.40
2023-03-29T06:41:21.577Z,100746.80
2023-03-29T06:43:21.663Z,100754.20
2023-03-29T06:45:10.442Z,100756.80
2023-03-29T06:46:42.403Z,100756.60
2023-03-29T06:48:14.161Z,100755.60
2023-03-29T06:49:46.170Z,100759.80
2023-03-29T06:51:34.991Z,100756.20
2023-03-29T06:53:06.732Z,100762.00
2023-03-29T06:54:39.333Z,100768.40
2023-03-29T06:56:11.179Z,100768.80
2023-03-29T06:57:42.995Z,100775.00
2023-03-29T06:59:14.765Z,100775.60
2023-03-29T07:01:07.401Z,100772.40
2023-03-29T07:02:51.038Z,100777.20
2023-03-29T07:04:26.152Z,100775.40
2023-03-29T07:06:20.377Z,100779.00
2023-03-29T07:07:56.637Z,100773.60
2023-03-29T07:09:55.765Z,100768.40
2023-03-29T07:11:46.553Z,100768.00
2023-03-29T07:13:27.674Z,100769.20
2023-03-29T07:14:59.640Z,100767.00
2023-03-29T07:16:47.336Z,100765.00
2023-03-29T07:18:23.548Z,100765.40
2023-03-29T07:19:55.233Z,100767.40
2023-03-29T07:21:53.369Z,100768.00
2023-03-29T07:23:26.611Z,100765.60
2023-03-29T07:24:59.992Z,100764.20
2023-03-29T07:26:32.193Z,100762.00
2023-03-29T07:28:05.065Z,100768.00
2023-03-29T07:29:37.203Z,100772.40
2023-03-29T07:31:13.405Z,100777.20
2023-03-29T07:32:52.174Z,100776.00
2023-03-29T07:34:38.058Z,100775.40
2023-03-29T07:36:11.150Z,100773.60
2023-03-29T07:37:45.389Z,100776.40
2023-03-29T07:39:17.602Z,100778.00
2023-03-29T07:40:56.552Z,100778.40
2023-03-29T07:42:46.813Z,100772.80
2023-03-29T07:44:21.611Z,100776.40
2023-03-29T07:45:53.572Z,100773.20
2023-03-29T07:47:26.370Z,100775.40
2023-03-29T07:48:58.180Z,100781.60
2023-03-29T07:50:32.482Z,100786.60
2023-03-29T07:52:05.268Z,100786.40
2023-03-29T07:53:38.423Z,100785.40
2023-03-29T07:55:13.468Z,100783.60
2023-03-29T07:57:10.485Z,100790.40
2023-03-29T07:58:46.737Z,100788.80
2023-03-29T08:00:20.074Z,100791.40
2023-03-29T08:01:58.052Z,100790.60
2023-03-29T08:03:52.337Z,100788.60
2023-03-29T08:05:37.671Z,100779.00
2023-03-29T08:07:19.792Z,100782.80
2023-03-29T08:09:01.662Z,100784.80
2023-03-29T08:10:36.485Z,100780.00
2023-03-29T08:12:27.962Z,100779.80
2023-03-29T08:14:00.821Z,100780.60
2023-03-29T08:15:50.850Z,100776.60
2023-03-29T08:17:28.989Z,100770.60
2023-03-29T08:19:01.103Z,100768.60
2023-03-29T08:20:44.079Z,100767.40
2023-03-29T08:22:15.894Z,100760.60
2023-03-29T08:24:18.572Z,100757.60
2023-03-29T08:25:55.019Z,100756.40
2023-03-29T08:27:27.136Z,100754.40
2023-03-29T08:28:59.760Z,100764.80
2023-03-29T08:30:33.121Z,100767.60
2023-03-29T08:32:05.929Z,100771.40
2023-03-29T08:33:37.900Z,100765.00
2023-03-29T08:35:28.269Z,100769.60
2023-03-29T08:37:20.655Z,100770.80
2023-03-29T08:38:53.395Z,100769.40
2023-03-29T08:40:30.056Z,100771.40
2023-03-29T08:42:58.713Z,100771.00
2023-03-29T08:45:16.218Z,100772.00
2023-03-29T08:47:15.239Z,100773.20
2023-03-29T08:48:59.054Z,100763.20
2023-03-29T08:50:37.855Z,100769.60
2023-03-29T08:52:47.032Z,100768.60
2023-03-29T08:54:47.298Z,100772.60
2023-03-29T08:56:47.301Z,100769.80
2023-03-29T08:58:34.877Z,100772.80
2023-03-29T09:00:19.636Z,100771.00
2023-03-29T09:01:56.637Z,100775.40
2023-03-29T09:03:54.306Z,100780.40
2023-03-29T09:05:41.382Z,100780.00
2023-03-29T09:07:21.014Z,100776.20
2023-03-29T09:08:53.485Z,100779.20
2023-03-29T09:10:39.608Z,100780.40
2023-03-29T09:12:23.171Z,100775.80
2023-03-29T09:14:37.012Z,100782.80
2023-03-29T09:16:46.635Z,100780.80
2023-03-29T09:18:35.893Z,100781.20
2023-03-29T09:20:27.492Z,100781.40
2023-03-29T09:22:12.132Z,100777.20
2023-03-29T09:24:08.541Z,100773.80
2023-03-29T09:26:39.634Z,100776.00
2023-03-29T09:28:38.966Z,100771.80
2023-03-29T09:30:49.312Z,100772.00
2023-03-29T09:32:30.076Z,100775.20
2023-03-29T09:34:15.920Z,100778.40
2023-03-29T09:36:26.579Z,100780.00
2023-03-29T09:38:01.369Z,100774.00
2023-03-29T09:39:33.274Z,100775.20
2023-03-29T09:41:26.895Z,100777.00
2023-03-29T09:43:04.151Z,100783.60
2023-03-29T09:44:55.257Z,100772.60
2023-03-29T09:46:51.917Z,100767.80
2023-03-29T09:48:27.061Z,100759.00
2023-03-29T09:50:31.382Z,100754.40
2023-03-29T09:52:12.994Z,100745.60
2023-03-29T09:53:47.908Z,100744.20
2023-03-29T09:55:31.309Z,100748.00
2023-03-29T09:57:27.453Z,100751.20
2023-03-29T09:58:59.350Z,100748.80
2023-03-29T10:00:31.155Z,100752.20
2023-03-29T10:02:14.422Z,100756.00
2023-03-29T10:03:53.221Z,100768.20
2023-03-29T10:05:29.461Z,100767.60
2023-03-29T10:07:04.726Z,100764.60
2023-03-29T10:08:38.710Z,100770.40
2023-03-29T10:10:22.063Z,100762.60
2023-03-29T10:11:57.878Z,100764.00
2023-03-29T10:13:34.735Z,100764.60
2023-03-29T10:15:11.713Z,100761.20
2023-03-29T10:16:56.866Z,100756.00
2023-03-29T10:18:32.157Z,100755.00
2023-03-29T10:20:08.204Z,100751.00
2023-03-29T10:21:42.256Z,100758.20
2023-03-29T10:23:18.750Z,100754.00
2023-03-29T10:24:53.813Z,100751.00
2023-03-29T10:26:32.837Z,100752.80
2023-03-29T10:28:11.907Z,100752.60
2023-03-29T10:29:43.907Z,100751.20
2023-03-29T10:31:22.426Z,100756.20
2023-03-29T10:32:59.906Z,100758.20
2023-03-29T10:34:33.780Z,100764.00
2023-03-29T10:36:07.764Z,100754.40
2023-03-29T10:37:43.110Z,100765.20
2023-03-29T10:39:16.405Z,100759.60
2023-03-29T10:41:03.160Z,100751.60
2023-03-29T10:42:35.011Z,100759.80
2023-03-29T10:44:24.098Z,100756.20
2023-03-29T10:46:11.739Z,100754.40
2023-03-29T10:47:48.079Z,100750.20
2023-03-29T10:49:23.277Z,100747.20
2023-03-29T10:51:01.024Z,100748.00
2023-03-29T10:52:33.232Z,100745.20
2023-03-29T10:54:11.817Z,100752.80
2023-03-29T10:55:53.725Z,100755.80
2023-03-29T10:57:45.017Z,100751.60
2023-03-29T11:00:06.815Z,100750.60
2023-03-29T11:02:14.840Z,100748.40
2023-03-29T11:03:58.847Z,100744.60
2023-03-29T11:05:54.048Z,100742.80
2023-03-29T11:07:32.892Z,100744.00
2023-03-29T11:09:39.673Z,100739.60
2023-03-29T11:12:04.706Z,100742.40
2023-03-29T11:13:59.889Z,100734.20
2023-03-29T11:15:59.156Z,100726.60
2023-03-29T11:17:50.976Z,100721.20
2023-03-29T11:19:40.745Z,100719.00
2023-03-29T11:21:34.957Z,100717.40
2023-03-29T11:23:52.154Z,100721.80
2023-03-29T11:25:49.164Z,100718.20
2023-03-29T11:27:35.730Z,100711.00
2023-03-29T11:29:27.091Z,100716.20
2023-03-29T11:31:09.425Z,100719.00
2023-03-29T11:33:17.739Z,100715.60
2023-03-29T11:35:06.023Z,100718.00
2023-03-29T11:36:55.138Z,100715.60
2023-03-29T11:38:51.622Z,100710.40
2023-03-29T11:40:39.290Z,100708.20
2023-03-29T11:42:21.892Z,100715.20
2023-03-29T11:44:08.856Z,100715.00
2023-03-29T11:45:52.336Z,100708.00
2023-03-29T11:47:32.615Z,100702.60
2023-03-29T11:49:16.618Z,100698.80
2023-03-29T11:50:58.716Z,100699.80
2023-03-29T11:52:35.198Z,100695.60
2023-03-29T11:54:32.348Z,100691.20
2023-03-29T11:56:15.611Z,100693.20
2023-03-29T11:57:56.877Z,100686.40
2023-03-29T12:00:12.314Z,100686.00
2023-03-29T12:01:56.439Z,100680.80
2023-03-29T12:03:47.261Z,100681.80
2023-03-29T12:05:55.644Z,100672.00
2023-03-29T12:07:48.616Z,100665.40
2023-03-29T12:10:17.945Z,100655.60
2023-03-29T12:12:02.983Z,100656.20
2023-03-29T12:13:47.606Z,100655.80
2023-03-29T12:15:31.795Z,100657.00
2023-03-29T12:17:12.602Z,100654.40
2023-03-29T12:18:50.032Z,100660.40
2023-03-29T12:20:28.400Z,100660.60
2023-03-29T12:22:03.377Z,100657.40
2023-03-29T12:23:38.353Z,100655.60
2023-03-29T12:25:20.202Z,100656.80
2023-03-29T12:26:58.977Z,100659.00
2023-03-29T12:28:57.259Z,100655.80
2023-03-29T12:30:47.371Z,100659.60
2023-03-29T12:32:39.674Z,100652.20
2023-03-29T12:34:44.323Z,100651.00
2023-03-29T12:37:23.439Z,100645.20
2023-03-29T12:39:34.097Z,100650.40
2023-03-29T12:41:24.922Z,100650.00
2023-03-29T12:43:37.615Z,100650.00
2023-03-29T12:45:37.643Z,100645.40
2023-03-29T12:47:24.651Z,100649.20
2023-03-29T12:49:07.646Z,100660.80
2023-03-29T12:50:54.161Z,100654.20
2023-03-29T12:52:34.020Z,100644.80
2023-03-29T12:54:26.814Z,100648.20
2023-03-29T12:56:03.081Z,100652.20
2023-03-29T12:58:08.365Z,100653.20
2023-03-29T12:59:46.118Z,100651.20
2023-03-29T13:01:39.286Z,100656.00
2023-03-29T13:03:40.310Z,100648.60
2023-03-29T13:05:36.173Z,100650.00
2023-03-29T13:07:29.660Z,100647.40
2023-03-29T13:09:21.486Z,100653.60
2023-03-29T13:10:56.448Z,100652.20
2023-03-29T13:12:39.791Z,100649.20
2023-03-29T13:14:20.443Z,100653.60
2023-03-29T13:15:52.334Z,100648.00
2023-03-29T13:17:34.912Z,100651.80
2023-03-29T13:19:27.796Z,100647.60
2023-03-29T13:21:28.777Z,100646.40
2023-03-29T13:23:39.867Z,100642.60
2023-03-29T13:25:47.522Z,100646.00
2023-03-29T13:28:10.778Z,100642.80
2023-03-29T13:30:25.990Z,100637.00
2023-03-29T13:32:32.420Z,100632.20
2023-03-29T13:34:30.996Z,100624.00
2023-03-29T13:36:15.756Z,100630.60
2023-03-29T13:38:20.442Z,100630.20
2023-03-29T13:39:54.979Z,100625.20
2023-03-29T13:41:33.485Z,100627.20
2023-03-29T13:43:19.786Z,100631.20
2023-03-29T13:44:53.782Z,100630.00
2023-03-29T13:46:37.438Z,100634.60
2023-03-29T13:48:41.501Z,100632.00
2023-03-29T13:50:29.389Z,100627.80
2023-03-29T13:52:26.278Z,100628.00
2023-03-29T13:54:16.090Z,100636.40
2023-03-29T13:55:53.807Z,100633.40
2023-03-29T13:57:39.619Z,100627.00
2023-03-29T13:59:22.211Z,100626.20
2023-03-29T14:01:28.312Z,100619.20
2023-03-29T14:03:06.232Z,100606.60
2023-03-29T14:04:47.053Z,100602.20
2023-03-29T14:06:37.193Z,100599.20
2023-03-29T14:08:17.300Z,100595.60
2023-03-29T14:09:50.985Z,100590.60
2023-03-29T14:11:29.091Z,100584.20
2023-03-29T14:13:03.902Z,100578.00
2023-03-29T14:14:38.700Z,100577.60
2023-03-29T14:16:17.301Z,100573.40
2023-03-29T14:17:49.607Z,100574.20
2023-03-29T14:19:34.872Z,100564.00
2023-03-29T14:21:13.810Z,100563.60
2023-03-29T14:22:46.186Z,100564.20
2023-03-29T14:24:25.980Z,100560.80
2023-03-29T14:26:19.085Z,100559.60
2023-03-29T14:27:50.848Z,100561.60
2023-03-29T14:29:25.381Z,100558.00
2023-03-29T14:30:57.285Z,100559.20
2023-03-29T14:32:31.604Z,100556.60
2023-03-29T14:34:11.401Z,100547.20
2023-03-29T14:35:43.278Z,100541.40
2023-03-29T14:37:26.187Z,100540.80
2023-03-29T14:39:07.940Z,100543.40
2023-03-29T14:40:39.840Z,100540.80
2023-03-29T14:42:21.275Z,100545.00
2023-03-29T14:43:53.134Z,100538.40
2023-03-29T14:45:25.115Z,100535.40
2023-03-29T14:46:57.388Z,100532.40
2023-03-29T14:48:33.063Z,100539.40
2023-03-29T14:50:06.075Z,100542.80
2023-03-29T14:51:40.497Z,100539.80
2023-03-29T14:53:23.510Z,100545.40
2023-03-29T14:55:02.256Z,100544.80
2023-03-29T14:56:34.514Z,100545.60
2023-03-29T14:58:21.525Z,100544.00
2023-03-29T14:59:59.863Z,100548.80
2023-03-29T15:01:32.312Z,100545.20
2023-03-29T15:03:13.752Z,100537.60
2023-03-29T15:04:55.492Z,100536.60
2023-03-29T15:06:29.057Z,100532.80
2023-03-29T15:08:03.648Z,100524.40
2023-03-29T15:09:36.002Z,100528.00
2023-03-29T15:11:23.758Z,100526.20
2023-03-29T15:12:56.088Z,100526.40
2023-03-29T15:14:36.984Z,100520.60
2023-03-29T15:16:13.211Z,100522.60
2023-03-29T15:17:51.211Z,100521.40
2023-03-29T15:19:26.373Z,100525.80
2023-03-29T15:20:59.465Z,100514.60
2023-03-29T15:22:33.357Z,100509.80
2023-03-29T15:24:05.899Z,100508.80
2023-03-29T15:25:49.092Z,100507.40
2023-03-29T15:27:21.098Z,100506.00
2023-03-29T15:29:03.014Z,100502.80
2023-03-29T15:30:44.240Z,100497.60
2023-03-29T15:32:33.996Z,100497.00
2023-03-29T15:34:12.394Z,100492.20
2023-03-29T15:35:51.861Z,100493.00
2023-03-29T15:37:23.755Z,100486.80
2023-03-29T15:38:55.798Z,100480.80
2023-03-29T15:40:28.179Z,100477.80
2023-03-29T15:41:59.936Z,100477.60
2023-03-29T15:43:31.855Z,100472.40
2023-03-29T15:45:06.201Z,100470.00
2023-03-29T15:46:38.120Z,100459.00
2023-03-29T15:48:19.772Z,100463.20
2023-03-29T15:49:51.603Z,100455.40
2023-03-29T15:51:23.400Z,100455.20
2023-03-29T15:53:08.628Z,100452.60
2023-03-29T15:54:44.358Z,100457.00
2023-03-29T15:56:20.258Z,100452.40
2023-03-29T15:57:54.131Z,100456.00
2023-03-29T15:59:26.074Z,100451.40
2023-03-29T16:01:13.123Z,100448.00
2023-03-29T16:02:45.051Z,100445.40
2023-03-29T16:04:20.594Z,100445.20
2023-03-29T16:05:54.222Z,100443.40
2023-03-29T16:07:25.992Z,100437.80
2023-03-29T16:08:57.745Z,100434.40
2023-03-29T16:10:29.439Z,100432.80
2023-03-29T16:12:01.358Z,100430.40
2023-03-29T16:13:33.414Z,100431.40
2023-03-29T16:15:20.389Z,100428.40
2023-03-29T16:16:55.381Z,100430.40
2023-03-29T16:18:27.308Z,100431.40
2023-03-29T16:19:59.031Z,100429.60
2023-03-29T16:21:30.723Z,100428.60
2023-03-29T16:23:08.621Z,100424.60
2023-03-29T16:24:40.429Z,100422.60
2023-03-29T16:26:17.352Z,100422.60
2023-03-29T16:27:50.787Z,100418.40
2023-03-29T16:29:24.535Z,100417.40
2023-03-29T16:30:56.311Z,100415.80
2023-03-29T16:32:28.231Z,100410.80
2023-03-29T16:34:00.735Z,100411.40
2023-03-29T16:35:35.677Z,100409.00
2023-03-29T16:37:07.573Z,100408.40
2023-03-29T16:38:39.373Z,100411.00
2023-03-29T16:40:12.498Z,100408.60
2023-03-29T16:41:46.866Z,100407.20
2023-03-29T16:43:18.851Z,100398.20
2023-03-29T16:44:50.729Z,100399.60
2023-03-29T16:46:23.298Z,100391.80
2023-03-29T16:47:56.035Z,100388.00
2023-03-29T16:49:28.431Z,100391.20
2023-03-29T16:51:00.912Z,100395.40
2023-03-29T16:52:33.020Z,100394.80
2023-03-29T16:54:04.791Z,100397.80
2023-03-29T16:55:38.065Z,100393.40
2023-03-29T16:57:10.341Z,100389.80
2023-03-29T16:58:42.456Z,100388.60
2023-03-29T17:00:19.534Z,100388.00
2023-03-29T17:01:51.274Z,100384.00
2023-03-29T17:03:24.052Z,100382.00
2023-03-29T17:04:57.184Z,100378.40
2023-03-29T17:06:28.907Z,100381.20
2023-03-29T17:08:02.140Z,100377.80
2023-03-29T17:09:33.969Z,100378.60
2023-03-29T17:11:09.590Z,100374.00
2023-03-29T17:12:41.591Z,100374.80
2023-03-29T17:14:13.394Z,100369.20
2023-03-29T17:15:45.143Z,100363.00
2023-03-29T17:17:17.108Z,100364.00
2023-03-29T17:18:48.811Z,100367.40
2023-03-29T17:20:20.563Z,100365.40
2023-03-29T17:21:52.317Z,100367.60
2023-03-29T17:23:24.880Z,100367.00
2023-03-29T17:24:56.643Z,100362.60
2023-03-29T17:26:28.456Z,100361.20
2023-03-29T17:28:00.239Z,100355.80
2023-03-29T17:29:32.217Z,100355.40
2023-03-29T17:31:09.764Z,100351.40
2023-03-29T17:32:41.653Z,100349.80
2023-03-29T17:34:19.106Z,100350.40
2023-03-29T17:35:51.390Z,100354.60
2023-03-29T17:37:23.230Z,100356.20
2023-03-29T17:38:54.977Z,100354.00
2023-03-29T17:40:27.126Z,100352.60
2023-03-29T17:41:58.872Z,100350.20
2023-03-29T17:43:31.806Z,100341.60
2023-03-29T17:45:06.583Z,100344.40
2023-03-29T17:46:38.656Z,100342.80
2023-03-29T17:48:10.591Z,100346.60
2023-03-29T17:49:42.365Z,100344.20
2023-03-29T17:51:14.021Z,100344.40
2023-03-29T17:52:45.762Z,100343.80
2023-03-29T17:54:18.096Z,100347.40
2023-03-29T17:55:49.775Z,100339.80
2023-03-29T17:57:21.479Z,100342.40
2023-03-29T17:58:53.466Z,100344.80
2023-03-29T18:00:25.299Z,100340.20
2023-03-29T18:01:57.531Z,100335.00
2023-03-29T18:03:29.300Z,100329.40
2023-03-29T18:05:01.866Z,100322.80
2023-03-29T18:06:33.588Z,100326.60
2023-03-29T18:08:05.419Z,100326.80
2023-03-29T18:09:37.193Z,100320.60
2023-03-29T18:11:22.889Z,100314.80
2023-03-29T18:12:54.856Z,100315.80
2023-03-29T18:14:26.492Z,100316.20
2023-03-29T18:15:58.843Z,100314.40
2023-03-29T18:17:31.245Z,100318.00
2023-03-29T18:19:03.170Z,100312.80
2023-03-29T18:20:34.850Z,100310.80
2023-03-29T18:22:06.653Z,100307.60
2023-03-29T18:23:40.912Z,100307.60
2023-03-29T18:25:12.686Z,100308.00
2023-03-29T18:26:44.412Z,100312.20
2023-03-29T18:28:16.233Z,100304.20
2023-03-29T18:29:47.894Z,100301.40
2023-03-29T18:31:19.945Z,100295.00
2023-03-29T18:32:52.010Z,100292.00
2023-03-29T18:34:23.763Z,100287.00
2023-03-29T18:35:55.921Z,100287.40
2023-03-29T18:37:27.953Z,100290.40
2023-03-29T18:39:05.519Z,100288.20
2023-03-29T18:40:39.070Z,100286.40
2023-03-29T18:42:12.250Z,100282.80
2023-03-29T18:43:46.667Z,100286.80
2023-03-29T18:45:19.049Z,100290.00
2023-03-29T18:46:50.732Z,100293.80
2023-03-29T18:48:22.875Z,100294.40
2023-03-29T18:49:54.618Z,100290.20
2023-03-29T18:51:28.067Z,100291.40
2023-03-29T18:52:59.994Z,100287.00
2023-03-29T18:54:32.035Z,100289.80
2023-03-29T18:56:05.238Z,100285.60
2023-03-29T18:57:37.374Z,100286.20
2023-03-29T18:59:09.556Z,100283.20
2023-03-29T19:00:42.698Z,100283.00
2023-03-29T19:02:15.580Z,100280.20
2023-03-29T19:03:48.046Z,100281.60